Time;durP1;ratioP1;P1;durP2;ratioP2;P2;SDS_P1;SDS_P2;PMS_P1;PMS_P2;Temp;Humidity;BMP_temperature;BMP_pressure;BME280_temperature;BME280_humidity;BME280_pressure;Samples;Min_cycle;Max_cycle;Signal;HPM_P1;HPM_P2
2023/04/15 00:02:18;;;;;;;;;25.50;23.00;;;;;10.96;100.00;100283.59;5002182;28;45598;-73
2023/04/15 00:04:45;;;;;;;;;28.00;25.00;;;;;11.02;100.00;100282.13;5004711;28;47580;-72
2023/04/15 00:07:11;;;;;;;;;27.25;22.00;;;;;11.02;100.00;100276.69;5002993;28;45250;-73
2023/04/15 00:09:36;;;;;;;;;21.25;19.50;;;;;11.03;100.00;100268.34;5003045;28;45532;-73
2023/04/15 00:12:02;;;;;;;;;23.25;21.75;;;;;11.03;100.00;100264.81;5019335;28;45730;-73
2023/04/15 00:14:27;;;;;;;;;24.00;23.25;;;;;11.07;100.00;100263.47;5017870;28;48261;-72
2023/04/15 00:16:55;;;;;;;;;19.50;19.25;;;;;11.00;100.00;100254.25;5004819;28;45329;-72
2023/04/15 00:19:20;;;;;;;;;27.50;27.50;;;;;11.00;100.00;100243.38;5003745;28;45537;-73
2023/04/15 00:21:46;;;;;;;;;21.75;19.25;;;;;10.99;100.00;100239.81;5003403;28;45354;-71
2023/04/15 00:24:12;;;;;;;;;24.75;22.75;;;;;11.01;100.00;100228.78;5001001;28;45771;-70
2023/04/15 00:26:38;;;;;;;;;26.00;23.00;;;;;11.00;100.00;100224.34;5003052;28;45463;-71
2023/04/15 00:29:03;;;;;;;;;24.00;23.25;;;;;10.96;100.00;100233.88;5002223;28;45665;-71
2023/04/15 00:31:30;;;;;;;;;19.75;19.00;;;;;10.99;100.00;100239.81;5003442;28;45368;-71
2023/04/15 00:33:56;;;;;;;;;24.50;23.00;;;;;11.10;100.00;100204.19;5002010;28;46251;-72
2023/04/15 00:36:22;;;;;;;;;23.00;21.00;;;;;11.17;100.00;100220.69;5002767;28;45238;-71
2023/04/15 00:38:47;;;;;;;;;21.25;18.25;;;;;11.15;100.00;100225.44;5002792;28;45586;-72
2023/04/15 00:41:12;;;;;;;;;27.00;21.00;;;;;11.04;100.00;100225.72;5003291;28;45304;-71
2023/04/15 00:43:38;;;;;;;;;24.00;20.75;;;;;11.08;100.00;100221.66;5002745;28;45351;-72
2023/04/15 00:46:04;;;;;;;;;20.75;19.25;;;;;11.14;100.00;100231.88;5002233;28;45297;-72
2023/04/15 00:48:31;;;;;;;;;20.00;20.00;;;;;11.07;100.00;100219.97;5002670;28;45477;-72
2023/04/15 00:50:56;;;;;;;;;22.00;21.00;;;;;11.03;100.00;100221.31;5002329;28;45312;-72
2023/04/15 00:53:22;;;;;;;;;22.00;22.00;;;;;11.06;100.00;100219.09;5002501;28;46189;-71
2023/04/15 00:55:48;;;;;;;;;26.75;25.75;;;;;11.12;100.00;100223.03;5002274;28;45227;-72
2023/04/15 00:58:14;;;;;;;;;26.00;23.50;;;;;11.07;100.00;100228.13;5003243;28;45151;-72
2023/04/15 01:00:40;;;;;;;;;23.25;20.75;;;;;11.14;100.00;100226.44;5006282;28;45482;-73
2023/04/15 01:03:05;;;;;;;;;29.50;27.75;;;;;11.21;100.00;100222.03;5005783;28;45343;-72
2023/04/15 01:05:31;;;;;;;;;32.00;27.50;;;;;11.15;100.00;100212.69;5005757;28;45408;-73
2023/04/15 01:07:56;;;;;;;;;31.00;27.75;;;;;11.15;100.00;100218.13;5019145;28;45181;-74
2023/04/15 01:10:22;;;;;;;;;32.50;28.50;;;;;11.23;100.00;100217.31;5006192;28;45394;-73
2023/04/15 01:12:47;;;;;;;;;30.50;27.25;;;;;11.20;100.00;100220.34;5005908;28;46453;-73
2023/04/15 01:15:13;;;;;;;;;31.00;28.50;;;;;10.95;100.00;100208.53;5005622;28;45346;-73
2023/04/15 01:17:39;;;;;;;;;36.50;33.50;;;;;10.92;100.00;100211.56;5002172;28;45395;-73
2023/04/15 01:20:05;;;;;;;;;26.50;24.25;;;;;10.91;100.00;100218.88;5004697;28;45465;-73
2023/04/15 01:22:33;;;;;;;;;28.75;27.00;;;;;10.92;100.00;100207.00;5005619;28;46641;-73
2023/04/15 01:25:08;;;;;;;;;27.50;26.50;;;;;11.00;100.00;100217.06;5005505;28;45490;-73
2023/04/15 01:27:36;;;;;;;;;33.00;29.75;;;;;10.95;100.00;100208.53;5004268;28;45234;-73
2023/04/15 01:30:04;;;;;;;;;33.75;26.25;;;;;10.88;100.00;100200.16;5005597;28;45376;-72
2023/04/15 01:32:29;;;;;;;;;26.25;21.25;;;;;10.78;100.00;100196.75;5005309;28;46287;-73
2023/04/15 01:34:55;;;;;;;;;31.00;27.25;;;;;10.80;100.00;100219.19;5003745;28;45509;-73
2023/04/15 01:37:20;;;;;;;;;25.25;23.00;;;;;10.79;100.00;100217.47;5005622;28;45642;-73
2023/04/15 01:39:46;;;;;;;;;27.00;21.00;;;;;10.80;100.00;100219.19;5005700;28;45541;-73
2023/04/15 01:42:11;;;;;;;;;26.00;19.25;;;;;10.85;100.00;100211.38;5005380;28;45513;-73
2023/04/15 01:44:37;;;;;;;;;22.50;19.50;;;;;10.84;100.00;100214.25;5003682;28;45726;-72
2023/04/15 01:47:02;;;;;;;;;23.00;21.33;;;;;10.90;100.00;100216.31;5003324;28;45500;-73
2023/04/15 01:49:27;;;;;;;;;22.75;22.75;;;;;10.90;100.00;100227.19;5005750;28;45381;-73
2023/04/15 01:51:53;;;;;;;;;31.75;25.00;;;;;10.92;100.00;100223.31;5004526;28;45367;-72
2023/04/15 01:54:19;;;;;;;;;29.50;25.75;;;;;10.87;100.00;100224.81;5003892;28;45402;-72
2023/04/15 01:56:44;;;;;;;;;26.00;22.50;;;;;10.87;100.00;100232.97;5001798;28;45355;-72
2023/04/15 01:59:09;;;;;;;;;20.00;19.00;;;;;10.78;100.00;100237.50;5003218;28;45587;-72
2023/04/15 02:01:35;;;;;;;;;24.75;23.00;;;;;10.66;100.00;100227.94;5003898;28;45493;-73
2023/04/15 02:04:00;;;;;;;;;29.75;27.00;;;;;10.67;100.00;100240.47;5005184;28;45478;-72
2023/04/15 02:06:27;;;;;;;;;26.25;25.25;;;;;10.50;100.00;100230.56;5004158;28;45241;-72
2023/04/15 02:08:52;;;;;;;;;28.75;28.00;;;;;10.50;100.00;100236.00;5005521;28;45421;-72
2023/04/15 02:11:18;;;;;;;;;27.00;24.00;;;;;10.54;100.00;100250.94;5002253;28;45503;-71
2023/04/15 02:13:43;;;;;;;;;35.25;30.25;;;;;11.06;100.00;100250.88;5004282;28;45406;-72
2023/04/15 02:16:19;;;;;;;;;25.00;21.00;;;;;11.25;100.00;100254.16;5001271;28;45385;-72
2023/04/15 02:18:45;;;;;;;;;21.00;21.00;;;;;11.22;100.00;100259.94;5004136;28;45616;-71
2023/04/15 02:21:11;;;;;;;;;24.33;22.33;;;;;11.27;100.00;100254.88;5003149;28;45491;-71
2023/04/15 02:23:36;;;;;;;;;24.50;23.50;;;;;11.19;100.00;100264.84;5002710;28;45380;-71
2023/04/15 02:26:01;;;;;;;;;27.25;24.75;;;;;11.18;100.00;100258.56;5003159;28;45466;-71
2023/04/15 02:28:27;;;;;;;;;20.25;18.00;;;;;11.02;100.00;100271.25;5004494;28;45375;-70
2023/04/15 02:30:55;;;;;;;;;33.75;29.25;;;;;11.20;100.00;100269.28;5003059;28;45332;-70
2023/04/15 02:33:20;;;;;;;;;38.25;29.00;;;;;11.22;100.00;100276.28;5001804;28;45405;-71
2023/04/15 02:35:46;;;;;;;;;28.00;25.00;;;;;11.47;100.00;100282.63;5003040;28;45497;-72
2023/04/15 02:38:11;;;;;;;;;26.75;23.50;;;;;11.34;100.00;100271.38;5002874;28;45363;-70
2023/04/15 02:40:36;;;;;;;;;27.00;26.75;;;;;11.36;100.00;100274.78;5003670;28;46973;-71
2023/04/15 02:43:02;;;;;;;;;30.25;25.75;;;;;11.26;100.00;100280.34;5003517;28;45276;-71
2023/04/15 02:45:27;;;;;;;;;32.75;29.25;;;;;11.40;100.00;100267.97;5001424;28;45432;-71
2023/04/15 02:47:53;;;;;;;;;28.25;26.50;;;;;11.40;100.00;100273.41;5003583;28;45501;-71
2023/04/15 02:50:19;;;;;;;;;29.00;27.50;;;;;11.36;100.00;100258.47;5003219;28;47966;-71
2023/04/15 02:52:45;;;;;;;;;30.25;28.25;;;;;11.56;100.00;100292.53;4964031;28;1155430;-71
2023/04/15 02:55:11;;;;;;;;;29.25;26.75;;;;;11.40;100.00;100281.59;5002936;28;45458;-71
2023/04/15 02:57:38;;;;;;;;;26.25;25.50;;;;;11.55;100.00;100295.41;5004780;28;45443;-71
2023/04/15 03:00:05;;;;;;;;;24.50;20.25;;;;;11.58;100.00;100285.06;5003571;28;45316;-72
2023/04/15 03:02:37;;;;;;;;;28.00;28.00;;;;;11.69;100.00;100292.88;5002783;28;45412;-72
2023/04/15 03:05:03;;;;;;;;;27.00;20.75;;;;;11.53;100.00;100298.31;5003723;28;45450;-71
2023/04/15 03:07:28;;;;;;;;;31.25;25.50;;;;;11.31;100.00;100293.47;5004710;28;45657;-71
2023/04/15 03:09:54;;;;;;;;;30.50;25.75;;;;;11.40;100.00;100303.34;5003386;28;45303;-71
2023/04/15 03:12:19;;;;;;;;;38.00;32.25;;;;;11.24;100.00;100306.03;5002888;28;45360;-72
2023/04/15 03:14:44;;;;;;;;;23.00;21.00;;;;;11.35;100.00;100329.34;5001922;28;45685;-71
2023/04/15 03:17:10;;;;;;;;;33.25;23.75;;;;;11.47;100.00;100325.31;5004367;28;46148;-71
2023/04/15 03:19:35;;;;;;;;;23.00;21.50;;;;;11.31;100.00;100320.66;5003523;28;47363;-72
2023/04/15 03:22:00;;;;;;;;;26.75;24.50;;;;;11.28;100.00;100321.00;5002949;28;45249;-71
2023/04/15 03:24:28;;;;;;;;;31.25;28.50;;;;;11.22;100.00;100333.38;5018912;28;45500;-72
2023/04/15 03:26:54;;;;;;;;;29.50;27.00;;;;;11.30;100.00;100332.56;5004462;28;45623;-72
2023/04/15 03:29:19;;;;;;;;;25.00;24.50;;;;;11.27;100.00;100324.72;5003315;28;45699;-72
2023/04/15 03:31:44;;;;;;;;;24.75;24.50;;;;;11.08;100.00;100333.13;5001790;28;45380;-72
2023/04/15 03:34:10;;;;;;;;;30.25;26.00;;;;;11.19;100.00;100335.56;5018548;28;45430;-71
2023/04/15 03:36:35;;;;;;;;;31.50;28.00;;;;;11.15;100.00;100328.75;5004077;28;45434;-72
2023/04/15 03:39:01;;;;;;;;;25.75;23.25;;;;;11.07;100.00;100318.69;5001637;28;48072;-72
2023/04/15 03:41:27;;;;;;;;;29.33;24.00;;;;;11.11;100.00;100317.31;5004991;28;45398;-72
2023/04/15 03:43:53;;;;;;;;;26.25;23.25;;;;;11.02;100.00;100340.06;5002149;28;45295;-72
2023/04/15 03:46:18;;;;;;;;;20.00;20.00;;;;;11.00;100.00;100338.50;5003264;28;45380;-72
2023/04/15 03:48:44;;;;;;;;;16.75;15.00;;;;;10.78;100.00;100343.47;5003438;28;46180;-72
2023/04/15 03:51:09;;;;;;;;;17.00;16.00;;;;;10.82;100.00;100341.28;5003043;28;45457;-72
2023/04/15 03:53:35;;;;;;;;;20.00;17.00;;;;;10.81;100.00;100351.28;5003612;28;45425;-72
2023/04/15 03:56:01;;;;;;;;;18.67;16.33;;;;;10.86;100.00;100348.97;5003244;28;45597;-72
2023/04/15 03:58:26;;;;;;;;;13.67;13.00;;;;;10.75;100.00;100346.50;5035644;28;47026;-73
2023/04/15 04:00:51;;;;;;;;;14.33;12.33;;;;;10.70;100.00;100345.28;5002267;28;45288;-73
2023/04/15 04:03:17;;;;;;;;;16.00;11.00;;;;;10.60;100.00;100358.97;5003403;28;45169;-71
2023/04/15 04:05:43;;;;;;;;;12.00;12.00;;;;;10.56;100.00;100352.16;5018898;28;45229;-71
2023/04/15 04:08:08;;;;;;;;;8.67;8.00;;;;;10.74;100.00;100354.84;5001073;28;47210;-72
2023/04/15 04:10:34;;;;;;;;;8.00;8.00;;;;;10.71;100.00;100366.00;5002965;28;45271;-72
2023/04/15 04:13:00;;;;;;;;;8.67;8.33;;;;;10.62;100.00;100367.81;5003474;28;45306;-72
2023/04/15 04:15:26;;;;;;;;;10.33;9.67;;;;;10.64;100.00;100368.50;5001964;28;45489;-71
2023/04/15 04:17:51;;;;;;;;;9.00;8.00;;;;;10.67;100.00;100360.03;4998873;28;45742;-73
2023/04/15 04:20:16;;;;;;;;;9.33;9.33;;;;;10.59;100.00;100362.72;5002660;28;45442;-70
2023/04/15 04:22:42;;;;;;;;;12.00;11.00;;;;;10.58;100.00;100377.31;5000924;28;45367;-71
2023/04/15 04:25:08;;;;;;;;;9.00;7.67;;;;;10.62;100.00;100375.09;5001750;28;44942;-71
2023/04/15 04:27:34;;;;;;;;;10.67;10.67;;;;;10.60;100.00;100380.69;5002947;28;45535;-71
2023/04/15 04:30:00;;;;;;;;;10.00;10.00;;;;;10.64;100.00;100386.69;5002337;28;45393;-70
2023/04/15 04:32:26;;;;;;;;;9.00;9.00;;;;;10.64;100.00;100390.25;5017069;28;45339;-71
2023/04/15 04:34:51;;;;;;;;;10.00;8.00;;;;;10.70;100.00;100389.63;5003131;28;45253;-70
2023/04/15 04:37:16;;;;;;;;;11.33;11.00;;;;;10.65;100.00;100385.66;5002595;28;50827;-70
2023/04/15 04:39:43;;;;;;;;;9.67;9.67;;;;;10.69;100.00;100401.47;5017919;28;45257;-73
2023/04/15 04:42:08;;;;;;;;;10.00;9.00;;;;;10.72;100.00;100400.31;5003205;28;45369;-71
2023/04/15 04:44:33;;;;;;;;;9.67;9.33;;;;;10.71;100.00;100398.63;5002636;28;45394;-72
2023/04/15 04:46:59;;;;;;;;;11.67;8.67;;;;;10.73;100.00;100404.75;5001693;28;45389;-71
2023/04/15 04:49:24;;;;;;;;;9.00;8.33;;;;;10.70;100.00;100403.19;5002287;28;45329;-71
2023/04/15 04:51:50;;;;;;;;;10.67;7.67;;;;;10.73;100.00;100408.34;5002992;28;45445;-72
2023/04/15 04:54:16;;;;;;;;;7.67;6.67;;;;;10.58;100.00;100409.03;5001462;28;45528;-71
2023/04/15 04:56:41;;;;;;;;;7.33;7.33;;;;;10.80;100.00;100423.00;5002851;28;45528;-71
2023/04/15 04:59:07;;;;;;;;;2.33;2.00;;;;;10.73;100.00;100424.63;5002263;28;45317;-72
2023/04/15 05:01:33;;;;;;;;;5.33;5.33;;;;;10.78;100.00;100422.28;5002781;28;45224;-71
2023/04/15 05:03:59;;;;;;;;;7.67;7.67;;;;;10.78;100.00;100425.00;5009625;28;45505;-72
2023/04/15 05:06:24;;;;;;;;;9.00;8.00;;;;;10.72;100.00;100441.09;5016153;28;47104;-72
2023/04/15 05:08:50;;;;;;;;;4.00;4.00;;;;;10.71;100.00;100434.78;5002790;28;45245;-73
2023/04/15 05:11:15;;;;;;;;;4.33;4.33;;;;;10.58;100.00;100441.66;5016596;28;45328;-72
2023/04/15 05:13:41;;;;;;;;;4.33;4.00;;;;;10.69;100.00;100452.25;5010190;28;45537;-72
2023/04/15 05:16:06;;;;;;;;;4.00;4.00;;;;;10.66;100.00;100471.59;5001774;28;46443;-72
2023/04/15 05:18:32;;;;;;;;;3.00;3.00;;;;;10.62;100.00;100465.59;5017702;28;45244;-72
2023/04/15 05:20:58;;;;;;;;;4.67;4.67;;;;;10.65;100.00;100478.03;5002140;28;44822;-71
2023/04/15 05:23:23;;;;;;;;;7.00;5.00;;;;;10.60;100.00;100474.91;5003114;28;45505;-71
2023/04/15 05:25:48;;;;;;;;;2.00;2.00;;;;;10.64;100.00;100485.34;5001284;28;46411;-71
2023/04/15 05:28:14;;;;;;;;;2.00;2.00;;;;;10.66;100.00;100490.63;5001240;28;45382;-73
2023/04/15 05:30:40;;;;;;;;;3.67;3.67;;;;;10.49;100.00;100493.16;5001927;28;45336;-72
2023/04/15 05:33:05;;;;;;;;;4.00;4.00;;;;;10.57;100.00;100505.13;5001414;28;45417;-72
2023/04/15 05:35:30;;;;;;;;;2.00;2.00;;;;;10.41;100.00;100494.94;5001567;28;45422;-71
2023/04/15 05:37:56;;;;;;;;;4.00;4.00;;;;;10.47;100.00;100494.31;5034085;28;45854;-71
2023/04/15 05:40:21;;;;;;;;;24.75;24.75;;;;;10.53;100.00;100505.41;5001677;28;45429;-71
2023/04/15 05:42:47;;;;;;;;;5.00;5.00;;;;;10.61;100.00;100518.22;5001598;28;45568;-72
2023/04/15 05:45:12;;;;;;;;;3.67;2.00;;;;;10.62;100.00;100516.38;5018300;28;47924;-72
2023/04/15 05:47:37;;;;;;;;;4.00;4.00;;;;;10.67;100.00;100530.34;5005493;28;45483;-72
2023/04/15 05:50:03;;;;;;;;;6.33;5.00;;;;;10.66;100.00;100524.09;5003838;28;45469;-71
2023/04/15 05:52:29;;;;;;;;;5.00;4.00;;;;;10.71;100.00;100526.31;5008167;28;45482;-72
2023/04/15 05:54:55;;;;;;;;;5.67;5.00;;;;;10.67;100.00;100539.34;5035905;28;47954;-72
2023/04/15 05:57:20;;;;;;;;;8.00;7.00;;;;;10.87;100.00;100542.78;5004694;28;45433;-73
2023/04/15 05:59:45;;;;;;;;;5.33;5.33;;;;;10.68;100.00;100560.09;5036809;28;45257;-72
2023/04/15 06:02:12;;;;;;;;;4.67;4.67;;;;;10.65;100.00;100559.56;5005206;28;45276;-73
2023/04/15 06:04:38;;;;;;;;;9.00;9.00;;;;;10.49;100.00;100562.94;5019587;28;46806;-73
2023/04/15 06:07:03;;;;;;;;;5.00;5.00;;;;;10.51;100.00;100569.09;5002858;28;45545;-73
2023/04/15 06:09:29;;;;;;;;;5.00;4.33;;;;;10.54;100.00;100579.63;5004737;28;46036;-73
2023/04/15 06:11:55;;;;;;;;;4.67;4.67;;;;;10.58;100.00;100597.34;5017599;28;45338;-73
2023/04/15 06:14:21;;;;;;;;;4.33;4.33;;;;;10.57;100.00;100581.19;5019387;28;47213;-72
2023/04/15 06:16:46;;;;;;;;;8.00;5.00;;;;;10.60;100.00;100598.03;5004511;28;45292;-73
2023/04/15 06:19:11;;;;;;;;;3.00;3.00;;;;;10.68;100.00;100600.84;5019177;28;45453;-73
2023/04/15 06:21:37;;;;;;;;;4.00;4.00;;;;;10.66;100.00;100611.03;5004012;28;45428;-73
2023/04/15 06:24:02;;;;;;;;;5.00;2.00;;;;;10.62;100.00;100596.03;5003026;28;48274;-72
2023/04/15 06:26:28;;;;;;;;;7.33;5.00;;;;;10.67;100.00;100620.84;5019712;28;45372;-72
2023/04/15 06:28:53;;;;;;;;;4.33;3.33;;;;;10.80;100.00;100639.53;5000320;28;45304;-74
2023/04/15 06:31:19;;;;;;;;;5.00;2.67;;;;;10.77;100.00;100624.38;5004777;28;45683;-71
2023/04/15 06:33:44;;;;;;;;;4.67;3.00;;;;;10.80;100.00;100626.81;5000203;28;47286;-72
2023/04/15 06:36:10;;;;;;;;;7.00;5.00;;;;;10.92;100.00;100636.44;5003736;28;45398;-73
2023/04/15 06:38:35;;;;;;;;;3.00;3.00;;;;;10.95;100.00;100637.16;5004816;28;45848;-72
2023/04/15 06:41:01;;;;;;;;;2.00;1.00;;;;;10.87;100.00;100657.81;5004634;28;45717;-73
2023/04/15 06:43:27;;;;;;;;;7.00;4.00;;;;;10.96;100.00;100655.19;5004829;28;45551;-72
2023/04/15 06:45:52;;;;;;;;;5.67;4.00;;;;;10.96;100.00;100669.59;5003216;28;45320;-71
2023/04/15 06:48:18;;;;;;;;;4.33;3.00;;;;;10.80;100.00;100664.84;5004406;28;45347;-73
2023/04/15 06:50:43;;;;;;;;;2.33;2.33;;;;;10.72;100.00;100667.47;5004256;28;45518;-73
2023/04/15 06:53:08;;;;;;;;;5.33;3.33;;;;;10.88;100.00;100678.50;5004564;28;48508;-73
2023/04/15 06:55:34;;;;;;;;;3.00;3.00;;;;;10.99;100.00;100665.72;5002347;28;45439;-72
2023/04/15 06:57:59;;;;;;;;;2.00;1.00;;;;;10.78;100.00;100696.75;5035834;28;45823;-72
2023/04/15 07:00:25;;;;;;;;;1.67;1.67;;;;;10.99;100.00;100698.34;5003886;28;45457;-72
2023/04/15 07:02:50;;;;;;;;;2.33;2.33;;;;;10.74;100.00;100691.78;5004222;28;46542;-72
2023/04/15 07:05:15;;;;;;;;;3.00;3.00;;;;;10.85;100.00;100700.59;5034827;28;45740;-72
2023/04/15 07:07:41;;;;;;;;;2.00;2.00;;;;;10.95;100.00;100710.56;5015743;28;45337;-72
2023/04/15 07:10:07;;;;;;;;;4.00;4.00;;;;;10.93;100.00;100719.72;5034011;28;45297;-72
2023/04/15 07:12:34;;;;;;;;;3.00;3.00;;;;;11.01;100.00;100726.25;5004139;28;46159;-72
2023/04/15 07:14:59;;;;;;;;;3.00;1.00;;;;;10.85;100.00;100718.75;5001222;28;45357;-73
2023/04/15 07:17:24;;;;;;;;;3.00;3.00;;;;;11.04;100.00;100739.53;5035359;28;45186;-72
2023/04/15 07:19:50;;;;;;;;;3.00;3.00;;;;;10.86;100.00;100743.06;5034846;28;45485;-72
2023/04/15 07:22:15;;;;;;;;;15.67;15.67;;;;;10.92;100.00;100745.19;5001731;28;47211;-72
2023/04/15 07:24:41;;;;;;;;;2.00;2.00;;;;;10.96;100.00;100740.28;5002667;28;45220;-73
2023/04/15 07:27:07;;;;;;;;;2.00;2.00;;;;;10.98;100.00;100756.44;4998987;28;45365;-73
2023/04/15 07:29:32;;;;;;;;;2.00;2.00;;;;;11.00;100.00;100751.72;5003205;28;45442;-73
2023/04/15 07:31:58;;;;;;;;;1.00;1.00;;;;;11.12;100.00;100769.53;5002330;28;53616;-73
2023/04/15 07:34:23;;;;;;;;;2.00;0.67;;;;;11.30;100.00;100782.19;5002517;28;45531;-73
2023/04/15 07:36:50;;;;;;;;;3.00;3.00;;;;;11.25;100.00;100770.06;5018212;28;45678;-73
2023/04/15 07:39:16;;;;;;;;;4.67;2.00;;;;;11.33;100.00;100781.00;5002876;28;45449;-71
2023/04/15 07:41:41;;;;;;;;;2.00;2.00;;;;;11.46;100.00;100794.25;5001168;28;47274;-74
2023/04/15 07:44:07;;;;;;;;;3.00;1.33;;;;;11.36;100.00;100788.88;5033965;28;45430;-73
2023/04/15 07:46:32;;;;;;;;;2.00;1.67;;;;;11.45;100.00;100790.69;5001122;28;45380;-72
2023/04/15 07:48:57;;;;;;;;;1.00;1.00;;;;;11.45;100.00;100800.72;5018142;28;45494;-72
2023/04/15 07:51:23;;;;;;;;;3.67;3.00;;;;;11.46;100.00;100808.72;5000944;28;48117;-73
2023/04/15 07:53:49;;;;;;;;;0.00;0.00;;;;;11.30;100.00;100819.41;5014650;28;45443;-73
2023/04/15 07:56:14;;;;;;;;;2.00;1.67;;;;;11.13;100.00;100795.72;5016799;28;45284;-72
2023/04/15 07:58:40;;;;;;;;;1.00;1.00;;;;;11.19;100.00;100816.88;5002923;28;45228;-73
2023/04/15 08:01:05;;;;;;;;;1.00;1.00;;;;;11.22;100.00;100836.47;5002031;28;46495;-72
2023/04/15 08:03:31;;;;;;;;;2.00;2.00;;;;;11.22;100.00;100827.47;4997900;28;45290;-71
2023/04/15 08:05:57;;;;;;;;;2.00;2.00;;;;;11.22;100.00;100833.75;4999212;28;45438;-72
2023/04/15 08:08:22;;;;;;;;;1.00;1.00;;;;;11.04;100.00;100827.38;5002410;28;45279;-72
2023/04/15 08:10:48;;;;;;;;;4.67;2.00;;;;;11.26;100.00;100837.88;5001776;28;45879;-72
2023/04/15 08:13:14;;;;;;;;;3.00;3.00;;;;;11.34;100.00;100842.56;5002090;28;45470;-72
2023/04/15 08:15:39;;;;;;;;;2.00;2.00;;;;;11.28;100.00;100859.50;5002031;28;45436;-72
2023/04/15 08:18:05;;;;;;;;;5.00;4.00;;;;;11.29;100.00;100861.19;5002410;28;45379;-72
2023/04/15 08:20:30;;;;;;;;;2.00;2.00;;;;;11.36;100.00;100866.91;5002115;28;46287;-72
2023/04/15 08:22:55;;;;;;;;;4.00;2.33;;;;;11.39;100.00;100872.91;5002349;28;45392;-72
2023/04/15 08:25:21;;;;;;;;;4.00;4.00;;;;;11.47;100.00;100883.03;5002071;28;45458;-73
2023/04/15 08:27:46;;;;;;;;;3.67;3.00;;;;;11.14;100.00;100890.75;5001316;28;45506;-72
2023/04/15 08:30:12;;;;;;;;;4.33;4.33;;;;;11.28;100.00;100883.97;5001572;28;45434;-72
2023/04/15 08:32:38;;;;;;;;;3.67;3.67;;;;;11.17;100.00;100905.94;5017125;28;45394;-73
2023/04/15 08:35:04;;;;;;;;;3.67;3.67;;;;;11.30;100.00;100906.44;5001490;28;45470;-73
2023/04/15 08:37:29;;;;;;;;;4.33;4.33;;;;;11.38;100.00;100912.00;4998173;28;46481;-73
2023/04/15 08:39:54;;;;;;;;;4.33;4.33;;;;;11.29;100.00;100904.72;4999382;28;46442;-74
2023/04/15 08:42:27;;;;;;;;;3.00;3.00;;;;;11.30;100.00;100918.19;4999931;28;45355;-72
2023/04/15 08:44:52;;;;;;;;;3.00;3.00;;;;;11.38;100.00;100925.59;4998722;28;44894;-73
2023/04/15 08:47:21;;;;;;;;;3.00;3.00;;;;;11.35;100.00;100919.59;4997899;28;45397;-73
2023/04/15 08:49:52;;;;;;;;;4.00;4.00;;;;;11.37;100.00;100923.03;4998193;28;46977;-73
2023/04/15 08:52:18;;;;;;;;;3.00;1.33;;;;;11.48;100.00;100947.31;5002463;28;45336;-73
2023/04/15 08:54:44;;;;;;;;;4.00;3.00;;;;;11.50;100.00;100948.88;4997892;28;45459;-72
2023/04/15 08:57:10;;;;;;;;;4.67;4.00;;;;;11.59;100.00;100949.84;5001223;28;45577;-74
2023/04/15 08:59:35;;;;;;;;;4.00;4.00;;;;;11.63;100.00;100957.56;4999549;28;47159;-71
2023/04/15 09:02:02;;;;;;;;;3.33;3.00;;;;;11.67;100.00;100948.09;5001447;28;45309;-71
2023/04/15 09:04:28;;;;;;;;;4.33;4.33;;;;;11.88;100.00;100961.47;5016527;28;45883;-72
2023/04/15 09:06:54;;;;;;;;;5.00;3.00;;;;;11.98;100.00;100966.88;5001842;28;45434;-71
2023/04/15 09:09:19;;;;;;;;;3.00;3.00;;;;;12.11;100.00;100971.97;5001113;28;45609;-72
2023/04/15 09:11:45;;;;;;;;;3.00;3.00;;;;;12.21;100.00;100979.03;5001795;28;45253;-72
2023/04/15 09:14:10;;;;;;;;;0.33;0.33;;;;;12.40;100.00;100998.00;5001109;28;45817;-72
2023/04/15 09:16:56;;;;;;;;;4.00;4.00;;;;;12.42;100.00;100998.69;4999212;28;45412;-72
2023/04/15 09:19:23;;;;;;;;;2.00;2.00;;;;;12.33;100.00;100986.00;5001984;28;47670;-72
2023/04/15 09:21:50;;;;;;;;;3.00;3.00;;;;;12.55;100.00;100997.47;5003575;28;45383;-72
2023/04/15 09:24:15;;;;;;;;;4.33;2.67;;;;;12.55;100.00;100990.16;5004690;28;45333;-72
2023/04/15 09:26:41;;;;;;;;;5.33;4.00;;;;;12.82;100.00;101005.56;5005148;28;45372;-71
2023/04/15 09:29:09;;;;;;;;;3.00;3.00;;;;;13.05;100.00;101006.78;5003100;28;46934;-72
2023/04/15 09:31:36;;;;;;;;;15.00;15.00;;;;;13.27;100.00;101016.38;5019531;28;45769;-71
2023/04/15 09:34:02;;;;;;;;;2.33;2.33;;;;;12.94;100.00;101011.63;5018493;28;45421;-72
2023/04/15 09:36:30;;;;;;;;;2.00;2.00;;;;;12.76;100.00;101025.28;5003560;28;45465;-71
2023/04/15 09:38:57;;;;;;;;;4.00;4.00;;;;;12.98;100.00;101029.41;5004531;28;46106;-71
2023/04/15 09:41:24;;;;;;;;;3.67;2.33;;;;;12.97;100.00;101025.81;5002409;28;45261;-71
2023/04/15 09:43:49;;;;;;;;;4.33;3.00;;;;;13.06;100.00;101030.34;5004763;28;45529;-72
2023/04/15 09:46:15;;;;;;;;;1.00;1.00;;;;;12.83;100.00;101031.81;5004257;28;45370;-72
2023/04/15 09:48:40;;;;;;;;;3.33;2.00;;;;;12.91;100.00;101040.06;5004661;28;45410;-72
2023/04/15 09:51:05;;;;;;;;;6.00;4.67;;;;;12.93;100.00;101056.28;5003935;28;45836;-72
2023/04/15 09:53:35;;;;;;;;;4.33;4.33;;;;;12.37;100.00;101050.06;5020173;28;46186;-72
2023/04/15 09:56:01;;;;;;;;;2.00;2.00;;;;;12.47;100.00;101056.34;5019737;28;45541;-71
2023/04/15 09:58:33;;;;;;;;;5.00;5.00;;;;;12.48;100.00;101073.53;5003117;28;47019;-71
2023/04/15 10:01:02;;;;;;;;;6.67;6.67;;;;;12.77;100.00;101078.78;5003904;28;45323;-71
2023/04/15 10:03:30;;;;;;;;;7.33;3.67;;;;;13.01;100.00;101084.47;5004259;28;45333;-71
2023/04/15 10:05:57;;;;;;;;;5.00;5.00;;;;;12.93;100.00;101078.13;5002804;28;45475;-71
2023/04/15 10:08:26;;;;;;;;;3.00;3.00;;;;;12.84;100.00;101093.53;5004140;28;46208;-72
2023/04/15 10:10:52;;;;;;;;;1.00;1.00;;;;;12.98;100.00;101092.13;5019033;28;45404;-71
2023/04/15 10:13:23;;;;;;;;;2.33;2.33;;;;;13.14;100.00;101087.72;5002730;28;45388;-72
2023/04/15 10:16:05;;;;;;;;;2.00;2.00;;;;;13.38;100.00;101094.38;5003846;28;45388;-72
2023/04/15 10:18:33;;;;;;;;;3.00;3.00;;;;;13.44;100.00;101082.84;4993582;28;45478;-72
2023/04/15 10:21:00;;;;;;;;;1.67;1.67;;;;;13.62;100.00;101087.25;5003414;28;45423;-72
2023/04/15 10:23:26;;;;;;;;;5.00;3.00;;;;;13.62;100.00;101081.78;5002676;28;45459;-71
2023/04/15 10:25:55;;;;;;;;;5.00;5.00;;;;;13.74;100.00;101084.25;5003815;28;45611;-71
2023/04/15 10:28:24;;;;;;;;;3.00;3.00;;;;;13.49;100.00;101105.06;5003905;28;46809;-73
2023/04/15 10:30:50;;;;;;;;;6.67;5.00;;;;;13.40;100.00;101097.81;5002985;28;45327;-72
2023/04/15 10:33:20;;;;;;;;;4.00;4.00;;;;;13.32;100.00;101106.78;5003687;28;45372;-72
2023/04/15 10:35:48;;;;;;;;;2.67;2.67;;;;;13.68;100.00;101113.06;5018700;28;45477;-70
2023/04/15 10:38:44;;;;;;;;;3.00;3.00;;;;;14.10;100.00;101104.94;5004644;28;45913;-72
2023/04/15 10:41:21;;;;;;;;;2.00;2.00;;;;;13.90;100.00;101101.59;4999505;28;45376;-71
2023/04/15 10:43:54;;;;;;;;;3.00;3.00;;;;;13.87;100.00;101131.97;5002395;28;45360;-71
2023/04/15 10:46:40;;;;;;;;;3.00;3.00;;;;;14.02;100.00;101129.50;5035065;28;45846;-71
2023/04/15 10:49:14;;;;;;;;;5.67;5.67;;;;;14.13;100.00;101129.22;5002952;28;45526;-71
2023/04/15 10:51:41;;;;;;;;;7.00;4.00;;;;;13.72;100.00;101128.13;5016530;28;45416;-71
2023/04/15 10:54:30;;;;;;;;;4.00;4.00;;;;;13.53;100.00;101136.47;5000092;28;45416;-72
2023/04/15 10:57:04;;;;;;;;;4.67;4.67;;;;;13.98;100.00;101141.75;4996417;28;45578;-71
2023/04/15 11:00:12;;;;;;;;;4.67;4.67;;;;;13.99;100.00;101141.63;5023925;28;46158;-72
2023/04/15 11:02:46;;;;;;;;;2.00;2.00;;;;;13.96;100.00;101144.66;5015485;28;45712;-71
2023/04/15 11:05:14;;;;;;;;;3.00;3.00;;;;;14.06;100.00;101143.69;5001754;28;45746;-71
2023/04/15 11:07:45;;;;;;;;;3.00;2.00;;;;;14.01;100.00;101153.25;5014981;28;45480;-72
2023/04/15 11:10:17;;;;;;;;;6.67;4.67;;;;;13.94;100.00;101152.19;4999243;28;46623;-72